Peterborough, Canada
Current Conditions -  °F | °C
As of 10:00 PM on Friday 24 Oct 2014 (Local Time) from CYPQ Reporting Station
Few Clouds Few Clouds  
Wind Chill: 41°   Ceiling: Unl
Heat Index: 41°   Visibility: 9mi
Dew Point: 39°   Wind: 2mph
Humidity: 93%   Direction: 210°SSW
Pressure: 29.91"   Gusts: NA
Location:  44.3°N, 78.32°W
Report Text: CYPQ 250200Z AUTO 21002KT 9SM FEW080 05/04 A2991 RMK SLP134
Loading
Personal Weather Stations






























Interactive Weather Map
Tropical Storm Tracking
New forecast layout! Learn more

10-Day Weather Forecast

Advertisements
Track Severe Weather on mobile